createdAt,value
2023-02-03T00:01:22.927Z,95.74
2023-02-03T00:03:49.571Z,95.76
2023-02-03T00:06:16.139Z,95.95
2023-02-03T00:08:42.676Z,95.88
2023-02-03T00:11:09.191Z,95.80
2023-02-03T00:13:36.259Z,96.01
2023-02-03T00:16:03.263Z,96.13
2023-02-03T00:18:29.712Z,95.52
2023-02-03T00:20:56.113Z,95.73
2023-02-03T00:23:22.544Z,95.37
2023-02-03T00:25:48.993Z,95.39
2023-02-03T00:28:15.512Z,95.47
2023-02-03T00:30:41.938Z,95.38
2023-02-03T00:33:08.497Z,95.57
2023-02-03T00:35:39.139Z,95.49
2023-02-03T00:38:06.218Z,94.76
2023-02-03T00:40:32.645Z,95.00
2023-02-03T00:42:59.078Z,95.01
2023-02-03T00:45:26.568Z,94.89
2023-02-03T00:47:53.026Z,95.00
2023-02-03T00:50:19.982Z,94.60
2023-02-03T00:52:46.384Z,94.45
2023-02-03T00:55:12.801Z,94.24
2023-02-03T00:57:39.215Z,94.73
2023-02-03T01:00:06.560Z,94.45
2023-02-03T01:02:33.032Z,93.93
2023-02-03T01:05:00.010Z,94.25
2023-02-03T01:07:26.540Z,94.41
2023-02-03T01:09:53.008Z,94.39
2023-02-03T01:12:19.451Z,94.21
2023-02-03T01:14:45.906Z,94.45
2023-02-03T01:17:12.334Z,94.17
2023-02-03T01:19:38.758Z,94.14
2023-02-03T01:22:05.204Z,93.74
2023-02-03T01:24:31.633Z,93.91
2023-02-03T01:26:58.139Z,93.94
2023-02-03T01:29:24.724Z,94.05
2023-02-03T01:31:51.346Z,93.51
2023-02-03T01:34:18.461Z,93.40
2023-02-03T01:36:46.754Z,93.59
2023-02-03T01:39:13.914Z,93.62
2023-02-03T01:41:40.939Z,93.44
2023-02-03T01:44:35.621Z,93.41
2023-02-03T01:47:03.733Z,93.64
2023-02-03T01:49:36.529Z,93.63
2023-02-03T01:52:04.950Z,93.54
2023-02-03T01:54:37.536Z,93.67
2023-02-03T01:57:10.401Z,93.22
2023-02-03T01:59:37.213Z,93.20
2023-02-03T02:02:06.620Z,93.15
2023-02-03T02:04:48.147Z,93.62
2023-02-03T02:07:15.181Z,93.08
2023-02-03T02:09:43.273Z,92.71
2023-02-03T02:12:11.530Z,92.73
2023-02-03T02:14:39.416Z,93.00
2023-02-03T02:17:10.863Z,92.64
2023-02-03T02:20:15.992Z,92.62
2023-02-03T02:22:59.532Z,92.31
2023-02-03T02:25:39.060Z,92.40
2023-02-03T02:28:23.891Z,92.13
2023-02-03T02:31:13.008Z,92.33
2023-02-03T02:33:47.093Z,92.46
2023-02-03T02:36:19.631Z,92.44
2023-02-03T02:39:13.083Z,91.75
2023-02-03T02:41:48.319Z,92.04
2023-02-03T02:44:39.157Z,92.10
2023-02-03T02:47:16.917Z,92.67
2023-02-03T02:49:46.466Z,92.24
2023-02-03T02:52:16.270Z,92.05
2023-02-03T02:54:48.289Z,91.99
2023-02-03T02:57:19.627Z,92.36
2023-02-03T02:59:47.877Z,92.05
2023-02-03T03:02:14.495Z,91.86
2023-02-03T03:04:43.989Z,91.46
2023-02-03T03:07:16.615Z,91.58
2023-02-03T03:09:48.517Z,91.23
2023-02-03T03:12:21.440Z,90.87
2023-02-03T03:15:03.379Z,91.50
2023-02-03T03:17:34.277Z,91.35
2023-02-03T03:20:06.012Z,91.03
2023-02-03T03:22:37.076Z,90.79
2023-02-03T03:25:09.814Z,90.49
2023-02-03T03:27:41.122Z,90.50
2023-02-03T03:30:16.745Z,90.51
2023-02-03T03:32:43.499Z,91.07
2023-02-03T03:35:10.024Z,90.38
2023-02-03T03:37:38.079Z,90.17
2023-02-03T03:40:28.052Z,90.29
2023-02-03T03:42:59.277Z,90.98
2023-02-03T03:45:33.743Z,90.71
2023-02-03T03:48:30.170Z,91.40
2023-02-03T03:51:02.521Z,90.56
2023-02-03T03:53:32.164Z,90.89
2023-02-03T03:56:01.516Z,90.30
2023-02-03T03:58:30.973Z,90.29
2023-02-03T04:01:01.262Z,90.36
2023-02-03T04:03:50.274Z,90.56
2023-02-03T04:06:16.749Z,90.74
2023-02-03T04:08:43.257Z,90.38
2023-02-03T04:11:10.257Z,90.71
2023-02-03T04:13:36.711Z,90.58
2023-02-03T04:16:03.253Z,90.18
2023-02-03T04:18:29.749Z,89.49
2023-02-03T04:20:56.134Z,89.42
2023-02-03T04:23:22.562Z,89.55
2023-02-03T04:25:49.035Z,89.19
2023-02-03T04:28:15.527Z,89.23
2023-02-03T04:30:42.091Z,88.86
2023-02-03T04:33:08.568Z,89.06
2023-02-03T04:35:35.033Z,88.62
2023-02-03T04:38:01.472Z,87.95
2023-02-03T04:40:28.214Z,88.46
2023-02-03T04:42:54.838Z,88.18
2023-02-03T04:45:21.270Z,88.29
2023-02-03T04:47:54.308Z,88.76
2023-02-03T04:50:21.255Z,88.45
2023-02-03T04:52:47.784Z,87.92
2023-02-03T04:55:14.317Z,88.32
2023-02-03T04:57:40.758Z,87.99
2023-02-03T05:00:07.775Z,87.43
2023-02-03T05:02:34.189Z,88.01
2023-02-03T05:05:00.599Z,87.73
2023-02-03T05:07:27.016Z,87.62
2023-02-03T05:09:53.487Z,87.50
2023-02-03T05:12:19.941Z,87.66
2023-02-03T05:14:46.453Z,87.23
2023-02-03T05:17:13.148Z,87.37
2023-02-03T05:19:39.641Z,87.75
2023-02-03T05:22:06.061Z,87.25
2023-02-03T05:24:32.582Z,86.83
2023-02-03T05:26:59.047Z,86.87
2023-02-03T05:29:25.496Z,87.58
2023-02-03T05:31:51.994Z,87.31
2023-02-03T05:34:18.510Z,87.49
2023-02-03T05:36:45.135Z,87.49
2023-02-03T05:39:11.536Z,87.61
2023-02-03T05:41:52.855Z,87.52
2023-02-03T05:44:23.942Z,87.33
2023-02-03T05:46:53.146Z,87.36
2023-02-03T05:49:20.100Z,87.29
2023-02-03T05:51:47.390Z,87.79
2023-02-03T05:54:16.344Z,87.59
2023-02-03T05:56:42.826Z,87.31
2023-02-03T05:59:09.683Z,87.19
2023-02-03T06:01:36.903Z,86.91
2023-02-03T06:04:04.172Z,87.27
2023-02-03T06:06:33.819Z,87.60
2023-02-03T06:09:08.478Z,87.57
2023-02-03T06:11:35.915Z,87.76
2023-02-03T06:14:03.758Z,88.11
2023-02-03T06:16:30.337Z,88.01
2023-02-03T06:19:00.803Z,87.67
2023-02-03T06:21:28.338Z,87.96
2023-02-03T06:23:56.961Z,87.83
2023-02-03T06:26:23.980Z,87.94
2023-02-03T06:28:50.551Z,88.30
2023-02-03T06:31:17.260Z,87.62
2023-02-03T06:33:44.226Z,87.42
2023-02-03T06:36:10.721Z,87.78
2023-02-03T06:38:37.194Z,88.00
2023-02-03T06:41:03.778Z,87.81
2023-02-03T06:43:30.291Z,88.11
2023-02-03T06:45:57.193Z,88.54
2023-02-03T06:48:23.916Z,88.50
2023-02-03T06:50:50.454Z,88.84
2023-02-03T06:53:17.326Z,88.88
2023-02-03T06:55:43.772Z,88.74
2023-02-03T06:58:10.235Z,88.81
2023-02-03T07:00:36.765Z,88.81
2023-02-03T07:03:03.499Z,88.73
2023-02-03T07:05:30.325Z,88.82
2023-02-03T07:07:56.873Z,88.56
2023-02-03T07:10:23.475Z,88.61
2023-02-03T07:12:51.727Z,88.82
2023-02-03T07:15:18.790Z,88.66
2023-02-03T07:17:54.133Z,88.53
2023-02-03T07:20:22.283Z,88.43
2023-02-03T07:22:53.300Z,88.70
2023-02-03T07:25:20.451Z,88.40
2023-02-03T07:27:46.921Z,88.48
2023-02-03T07:30:13.794Z,88.69
2023-02-03T07:32:40.303Z,88.38
2023-02-03T07:35:06.884Z,88.57
2023-02-03T07:37:33.345Z,88.38
2023-02-03T07:39:59.867Z,88.71
2023-02-03T07:42:26.276Z,88.66
2023-02-03T07:44:52.698Z,88.30
2023-02-03T07:47:19.198Z,88.21
2023-02-03T07:49:45.633Z,88.65
2023-02-03T07:52:12.529Z,88.75
2023-02-03T07:54:39.046Z,88.18
2023-02-03T07:57:05.451Z,88.22
2023-02-03T07:59:31.897Z,88.73
2023-02-03T08:01:58.394Z,88.55
2023-02-03T08:04:25.028Z,88.39
2023-02-03T08:06:51.587Z,88.26
2023-02-03T08:09:18.290Z,88.32
2023-02-03T08:11:44.925Z,88.54
2023-02-03T08:14:11.482Z,88.46
2023-02-03T08:16:37.912Z,88.75
2023-02-03T08:19:04.331Z,88.76
2023-02-03T08:21:30.985Z,88.68
2023-02-03T08:23:57.381Z,88.33
2023-02-03T08:26:23.855Z,88.54
2023-02-03T08:28:50.360Z,88.45
2023-02-03T08:31:16.993Z,88.24
2023-02-03T08:33:43.515Z,88.27
2023-02-03T08:36:11.353Z,88.34
2023-02-03T08:38:39.274Z,88.47
2023-02-03T08:41:14.069Z,88.35
2023-02-03T08:43:40.837Z,88.23
2023-02-03T08:46:09.305Z,88.52
2023-02-03T08:48:36.195Z,88.05
2023-02-03T08:51:08.956Z,88.08
2023-02-03T08:53:35.369Z,88.34
2023-02-03T08:56:08.355Z,88.06
2023-02-03T08:58:35.468Z,88.00
2023-02-03T09:01:13.518Z,88.14
2023-02-03T09:03:40.078Z,88.10
2023-02-03T09:06:08.305Z,87.72
2023-02-03T09:08:34.828Z,87.71
2023-02-03T09:11:01.290Z,87.44
2023-02-03T09:13:27.831Z,87.51
2023-02-03T09:15:54.360Z,87.22
2023-02-03T09:18:20.826Z,87.14
2023-02-03T09:20:47.262Z,86.29
2023-02-03T09:23:13.798Z,86.90
2023-02-03T09:25:40.277Z,86.34
2023-02-03T09:28:06.810Z,86.46
2023-02-03T09:30:33.456Z,86.51
2023-02-03T09:33:00.002Z,85.20
2023-02-03T09:35:26.888Z,85.42
2023-02-03T09:37:53.359Z,85.92
2023-02-03T09:40:24.496Z,85.89
2023-02-03T09:43:00.340Z,85.79
2023-02-03T09:45:28.917Z,86.02
2023-02-03T09:48:03.194Z,86.47
2023-02-03T09:50:33.595Z,85.76
2023-02-03T09:53:06.405Z,86.05
2023-02-03T09:55:36.784Z,86.19
2023-02-03T09:58:14.451Z,85.51
2023-02-03T10:00:53.279Z,85.32
2023-02-03T10:03:52.374Z,85.92
2023-02-03T10:06:33.024Z,86.30
2023-02-03T10:09:11.682Z,86.04
2023-02-03T10:11:44.140Z,86.34
2023-02-03T10:14:35.781Z,86.17
2023-02-03T10:17:23.430Z,86.02
2023-02-03T10:19:57.101Z,86.18
2023-02-03T10:22:28.435Z,85.69
2023-02-03T10:25:12.050Z,85.96
2023-02-03T10:27:38.746Z,85.70
2023-02-03T10:30:20.816Z,85.79
2023-02-03T10:32:53.117Z,85.90
2023-02-03T10:35:22.252Z,85.61
2023-02-03T10:37:53.388Z,85.71
2023-02-03T10:40:22.571Z,84.78
2023-02-03T10:43:08.052Z,85.57
2023-02-03T10:45:38.375Z,85.41
2023-02-03T10:48:11.391Z,85.35
2023-02-03T10:50:42.218Z,85.05
2023-02-03T10:53:31.865Z,85.03
2023-02-03T10:56:10.415Z,85.26
2023-02-03T10:58:39.119Z,84.69
2023-02-03T11:01:21.491Z,84.86
2023-02-03T11:04:00.182Z,84.29
2023-02-03T11:06:27.740Z,85.16
2023-02-03T11:08:54.781Z,84.54
2023-02-03T11:11:27.350Z,84.61
2023-02-03T11:14:02.633Z,84.65
2023-02-03T11:16:38.483Z,84.99
2023-02-03T11:19:16.885Z,85.63
2023-02-03T11:21:50.573Z,85.68
2023-02-03T11:24:21.250Z,85.49
2023-02-03T11:27:00.048Z,85.73
2023-02-03T11:29:30.587Z,85.95
2023-02-03T11:32:00.123Z,85.23
2023-02-03T11:34:36.739Z,85.71
2023-02-03T11:37:32.315Z,85.58
2023-02-03T11:40:08.934Z,85.93
2023-02-03T11:42:37.469Z,85.23
2023-02-03T11:45:39.455Z,85.64
2023-02-03T11:48:33.126Z,85.58
2023-02-03T11:51:23.542Z,85.55
2023-02-03T11:54:05.016Z,85.10
2023-02-03T11:56:46.116Z,85.54
2023-02-03T11:59:21.240Z,85.48
2023-02-03T12:02:12.648Z,86.43
2023-02-03T12:04:51.224Z,86.16
2023-02-03T12:07:35.780Z,86.74
2023-02-03T12:10:06.014Z,86.82
2023-02-03T12:12:47.016Z,87.46
2023-02-03T12:15:25.677Z,88.31
2023-02-03T12:18:07.241Z,88.87
2023-02-03T12:20:48.756Z,88.95
2023-02-03T12:23:30.501Z,89.08
2023-02-03T12:26:19.011Z,89.02
2023-02-03T12:29:03.685Z,89.54
2023-02-03T12:31:39.533Z,90.34
2023-02-03T12:34:18.914Z,90.29
2023-02-03T12:36:47.294Z,90.85
2023-02-03T12:39:38.717Z,91.25
2023-02-03T12:42:32.495Z,91.68
2023-02-03T12:45:05.177Z,91.73
2023-02-03T12:47:39.956Z,92.16
2023-02-03T12:50:13.340Z,92.82
2023-02-03T12:52:51.296Z,93.01
2023-02-03T12:55:27.233Z,92.59
2023-02-03T12:57:58.614Z,93.01
2023-02-03T13:00:50.626Z,92.74
2023-02-03T13:03:40.496Z,93.07
2023-02-03T13:06:27.672Z,92.93
2023-02-03T13:09:03.275Z,92.92
2023-02-03T13:11:58.994Z,92.46
2023-02-03T13:14:34.701Z,92.68
2023-02-03T13:17:16.621Z,92.40
2023-02-03T13:19:49.088Z,91.95
2023-02-03T13:22:17.352Z,91.78
2023-02-03T13:24:55.762Z,91.79
2023-02-03T13:27:44.582Z,91.32
2023-02-03T13:30:37.188Z,90.75
2023-02-03T13:33:17.846Z,90.99
2023-02-03T13:35:59.464Z,89.96
2023-02-03T13:38:37.989Z,90.38
2023-02-03T13:41:14.153Z,89.34
2023-02-03T13:43:49.151Z,88.84
2023-02-03T13:46:27.772Z,88.20
2023-02-03T13:48:58.878Z,88.34
2023-02-03T13:51:46.297Z,88.45
2023-02-03T13:54:20.239Z,88.21
2023-02-03T13:57:17.636Z,88.00
2023-02-03T13:59:48.348Z,87.71
2023-02-03T14:02:24.401Z,87.54
2023-02-03T14:04:59.356Z,86.53
2023-02-03T14:07:38.938Z,86.33
2023-02-03T14:10:15.026Z,85.83
2023-02-03T14:12:44.465Z,85.11
2023-02-03T14:15:20.009Z,85.40
2023-02-03T14:17:46.489Z,84.72
2023-02-03T14:20:24.880Z,84.49
2023-02-03T14:22:55.676Z,84.28
2023-02-03T14:25:22.412Z,84.63
2023-02-03T14:27:59.966Z,84.26
2023-02-03T14:30:26.480Z,84.06
2023-02-03T14:32:57.931Z,84.14
2023-02-03T14:35:31.613Z,83.18
2023-02-03T14:38:02.590Z,83.65
2023-02-03T14:40:52.225Z,83.95
2023-02-03T14:43:42.532Z,83.98
2023-02-03T14:46:39.717Z,84.54
2023-02-03T14:49:23.139Z,84.47
2023-02-03T14:52:09.010Z,84.63
2023-02-03T14:55:14.175Z,83.74
2023-02-03T14:57:52.046Z,83.89
2023-02-03T15:00:25.471Z,83.41
2023-02-03T15:03:08.897Z,83.66
2023-02-03T15:05:52.507Z,83.77
2023-02-03T15:08:41.867Z,83.63
2023-02-03T15:11:33.256Z,84.03
2023-02-03T15:14:22.637Z,83.35
2023-02-03T15:16:59.005Z,83.77
2023-02-03T15:19:38.677Z,83.14
2023-02-03T15:22:26.506Z,83.17
2023-02-03T15:24:56.458Z,83.42
2023-02-03T15:27:25.493Z,83.24
2023-02-03T15:30:02.123Z,82.87
2023-02-03T15:32:39.931Z,82.69
2023-02-03T15:35:13.161Z,83.51
2023-02-03T15:37:57.174Z,82.84
2023-02-03T15:40:33.022Z,83.03
2023-02-03T15:43:09.661Z,82.62
2023-02-03T15:45:45.985Z,82.79
2023-02-03T15:48:29.395Z,83.18
2023-02-03T15:51:07.879Z,83.21
2023-02-03T15:53:47.608Z,83.72
2023-02-03T15:56:35.546Z,84.18
2023-02-03T15:59:02.308Z,84.76
2023-02-03T16:01:29.147Z,85.06
2023-02-03T16:03:58.519Z,85.18
2023-02-03T16:06:30.584Z,85.71
2023-02-03T16:08:59.444Z,85.65
2023-02-03T16:11:30.489Z,85.79
2023-02-03T16:14:03.220Z,85.85
2023-02-03T16:16:35.555Z,85.94
2023-02-03T16:19:12.870Z,86.10
2023-02-03T16:21:49.612Z,86.77
2023-02-03T16:24:38.172Z,86.44
2023-02-03T16:27:25.723Z,86.31
2023-02-03T16:30:38.602Z,86.52
2023-02-03T16:33:26.817Z,86.71
2023-02-03T16:36:12.549Z,86.43
2023-02-03T16:39:03.937Z,86.54
2023-02-03T16:41:50.121Z,86.72
2023-02-03T16:44:35.615Z,86.25
2023-02-03T16:47:21.682Z,86.39
2023-02-03T16:50:06.916Z,86.39
2023-02-03T16:52:33.381Z,86.35
2023-02-03T16:54:59.892Z,86.77
2023-02-03T16:57:26.370Z,86.98
2023-02-03T16:59:52.817Z,86.58
2023-02-03T17:02:19.386Z,86.70
2023-02-03T17:04:45.858Z,86.78
2023-02-03T17:07:12.335Z,87.05
2023-02-03T17:09:38.829Z,86.98
2023-02-03T17:12:05.578Z,86.72
2023-02-03T17:14:32.059Z,86.46
2023-02-03T17:16:58.626Z,86.63
2023-02-03T17:19:25.207Z,86.57
2023-02-03T17:21:52.479Z,86.25
2023-02-03T17:24:19.527Z,86.54
2023-02-03T17:26:46.007Z,86.69
2023-02-03T17:29:12.498Z,86.49
2023-02-03T17:31:38.989Z,86.59
2023-02-03T17:34:05.487Z,86.67
2023-02-03T17:36:31.943Z,87.23
2023-02-03T17:55:25.286Z,87.30
2023-02-03T17:57:51.939Z,87.11
2023-02-03T18:00:18.780Z,87.31
2023-02-03T18:02:49.660Z,87.05
2023-02-03T18:05:16.254Z,87.13
2023-02-03T18:07:43.214Z,87.63
2023-02-03T18:10:10.282Z,87.55
2023-02-03T18:12:36.779Z,87.42
2023-02-03T18:15:03.830Z,87.30
2023-02-03T18:17:30.272Z,87.53
2023-02-03T18:19:56.825Z,87.25
2023-02-03T18:22:23.418Z,87.25
2023-02-03T18:24:53.661Z,87.42
2023-02-03T18:27:20.151Z,87.43
2023-02-03T18:29:48.098Z,86.93
2023-02-03T18:32:15.911Z,86.64
2023-02-03T18:34:42.514Z,86.78
2023-02-03T18:37:09.010Z,86.21
2023-02-03T18:39:35.602Z,86.04
2023-02-03T18:42:02.118Z,85.96
2023-02-03T18:44:28.669Z,85.75
2023-02-03T18:46:55.225Z,86.17
2023-02-03T18:49:22.612Z,85.65
2023-02-03T18:51:49.157Z,86.01
2023-02-03T18:54:15.584Z,86.37
2023-02-03T18:56:42.067Z,85.45
2023-02-03T18:59:14.060Z,85.42
2023-02-03T19:01:40.745Z,85.31
2023-02-03T19:04:07.410Z,85.33
2023-02-03T19:06:35.852Z,85.53
2023-02-03T19:09:04.012Z,85.89
2023-02-03T19:11:30.524Z,85.37
2023-02-03T19:13:57.056Z,85.10
2023-02-03T19:16:24.104Z,85.57
2023-02-03T19:18:50.622Z,85.28
2023-02-03T19:21:17.441Z,85.69
2023-02-03T19:23:44.086Z,85.57
2023-02-03T19:26:11.962Z,86.29
2023-02-03T19:28:39.388Z,86.35
2023-02-03T19:31:08.818Z,86.05
2023-02-03T19:33:36.707Z,86.05
2023-02-03T19:36:04.599Z,86.41
2023-02-03T19:38:31.106Z,86.34
2023-02-03T19:40:57.564Z,86.75
2023-02-03T19:43:24.677Z,86.61
2023-02-03T19:45:51.655Z,86.81
2023-02-03T19:48:18.464Z,86.70
2023-02-03T19:50:47.500Z,86.94
2023-02-03T19:53:15.020Z,86.74
2023-02-03T19:55:45.329Z,86.79
2023-02-03T19:58:14.298Z,87.12
2023-02-03T20:00:41.889Z,86.98
2023-02-03T20:03:08.604Z,87.40
2023-02-03T20:05:35.972Z,87.03
2023-02-03T20:08:02.679Z,87.04
2023-02-03T20:10:29.422Z,87.35
2023-02-03T20:12:56.169Z,86.96
2023-02-03T20:15:22.823Z,87.33
2023-02-03T20:17:49.473Z,87.49
2023-02-03T20:20:19.743Z,87.38
2023-02-03T20:22:47.268Z,87.65
2023-02-03T20:25:14.607Z,87.56
2023-02-03T20:27:41.270Z,87.54
2023-02-03T20:30:08.349Z,87.69
2023-02-03T20:32:34.806Z,88.12
2023-02-03T20:35:04.182Z,87.81
2023-02-03T20:37:30.738Z,87.63
2023-02-03T20:39:57.215Z,87.52
2023-02-03T20:42:24.201Z,87.51
2023-02-03T20:44:50.831Z,87.19
2023-02-03T20:47:18.850Z,86.75
2023-02-03T20:49:47.764Z,87.14
2023-02-03T20:52:16.996Z,86.17
2023-02-03T20:54:44.247Z,86.13
2023-02-03T20:57:14.480Z,86.09
2023-02-03T20:59:41.693Z,86.32
2023-02-03T21:02:21.881Z,86.18
2023-02-03T21:04:59.097Z,86.10
2023-02-03T21:07:30.753Z,86.11
2023-02-03T21:09:58.958Z,86.34
2023-02-03T21:12:29.117Z,85.92
2023-02-03T21:14:55.733Z,85.85
2023-02-03T21:17:25.778Z,85.21
2023-02-03T21:19:53.613Z,85.07
2023-02-03T21:22:24.368Z,85.13
2023-02-03T21:24:57.040Z,84.67
2023-02-03T21:27:29.680Z,84.34
2023-02-03T21:30:01.260Z,84.30
2023-02-03T21:32:38.656Z,84.56
2023-02-03T21:35:28.039Z,84.55
2023-02-03T21:38:01.633Z,83.39
2023-02-03T21:40:32.834Z,83.01
2023-02-03T21:43:02.028Z,83.56
2023-02-03T21:45:34.239Z,83.05
2023-02-03T21:48:17.795Z,82.82
2023-02-03T21:50:44.205Z,82.07
2023-02-03T21:53:10.610Z,82.42
2023-02-03T21:55:39.000Z,82.51
2023-02-03T21:58:26.485Z,82.03
2023-02-03T22:00:55.737Z,81.20
2023-02-03T22:03:30.122Z,81.67
2023-02-03T22:06:08.416Z,81.56
2023-02-03T22:08:39.176Z,82.36
2023-02-03T22:11:06.056Z,81.62
2023-02-03T22:13:33.127Z,82.13
2023-02-03T22:15:59.889Z,82.41
2023-02-03T22:18:26.453Z,82.61
2023-02-03T22:20:53.360Z,83.16
2023-02-03T22:23:20.588Z,83.07
2023-02-03T22:25:47.815Z,83.63
2023-02-03T22:28:14.698Z,83.78
2023-02-03T22:30:41.414Z,83.74
2023-02-03T22:33:08.413Z,84.14
2023-02-03T22:35:34.836Z,83.80
2023-02-03T22:38:01.322Z,84.42
2023-02-03T22:40:27.733Z,84.64
2023-02-03T22:42:54.341Z,84.94
2023-02-03T22:45:21.755Z,85.11
2023-02-03T22:47:48.317Z,85.34
2023-02-03T22:50:17.451Z,84.09
2023-02-03T22:52:46.917Z,85.04
2023-02-03T22:55:13.374Z,84.52
2023-02-03T22:57:41.198Z,84.84
2023-02-03T23:00:13.252Z,85.38
2023-02-03T23:02:40.479Z,85.07
2023-02-03T23:05:09.286Z,85.35
2023-02-03T23:07:37.232Z,85.32
2023-02-03T23:10:04.781Z,84.68
2023-02-03T23:12:31.261Z,85.07
2023-02-03T23:14:57.717Z,84.39
2023-02-03T23:17:24.184Z,85.05
2023-02-03T23:19:50.846Z,85.21
2023-02-03T23:22:17.415Z,85.23
2023-02-03T23:24:43.870Z,85.44
2023-02-03T23:27:10.765Z,85.53
2023-02-03T23:29:38.184Z,86.19
2023-02-03T23:32:05.607Z,86.13
2023-02-03T23:34:50.950Z,85.88
2023-02-03T23:37:17.348Z,86.01
2023-02-03T23:39:43.919Z,85.72
2023-02-03T23:42:10.534Z,86.08
2023-02-03T23:44:37.079Z,85.88
2023-02-03T23:47:03.563Z,86.31
2023-02-03T23:49:31.277Z,86.04
2023-02-03T23:51:58.038Z,86.45
2023-02-03T23:54:25.207Z,86.32
2023-02-03T23:56:52.654Z,86.59
2023-02-03T23:59:19.797Z,86.61
